CST,Max TemperatureF,Mean TemperatureF,Min TemperatureF,Max Dew PointF,MeanDew PointF,Min DewpointF,Max Humidity, Mean Humidity, Min Humidity, Max Sea Level PressureIn, Mean Sea Level PressureIn, Min Sea Level PressureIn, Max VisibilityMiles, Mean VisibilityMiles, Min VisibilityMiles, Max Wind SpeedMPH, Mean Wind SpeedMPH, Max Gust SpeedMPH,PrecipitationIn, CloudCover, Events, WindDirDegrees
2013-2-1,25,10,-6,14,-2,-13,75,67,58,30.48,30.35,30.11,10,10,10,18,9,24,0.00,4,,227
2013-2-2,27,23,18,19,13,7,91,76,60,30.19,30.10,30.02,10,8,1,25,12,29,0.01,7,Snow,267
2013-2-3,31,25,18,25,16,10,92,73,53,30.22,30.06,29.86,10,8,2,33,13,40,T,4,Snow,273
2013-2-4,30,21,12,21,17,12,88,78,68,30.02,29.94,29.79,10,9,5,24,10,28,0.00,4,,335
2013-2-5,40,30,19,31,25,16,92,78,64,30.13,29.96,29.86,10,9,7,24,9,29,0.00,3,,274
2013-2-6,44,33,21,33,27,19,92,79,65,30.17,30.08,29.96,10,7,0,17,9,23,T,2,Fog,146
2013-2-7,40,35,30,38,35,26,100,88,76,30.17,29.96,29.90,10,4,1,24,11,31,0.51,8,Rain,327
2013-2-8,30,29,27,26,24,23,92,82,72,30.38,30.32,30.19,10,10,9,22,9,26,0.00,8,,31
2013-2-9,36,32,28,29,26,24,85,78,70,30.31,30.15,29.94,10,9,4,21,13,24,0.05,6,Rain,153
2013-2-10,56,45,33,46,36,24,100,76,51,29.89,29.57,29.32,10,6,2,37,21,47,0.20,7,Rain,171
2013-2-11,37,33,29,25,22,19,75,67,59,30.14,29.97,29.66,10,10,10,35,20,46,0.00,7,,286
2013-2-12,44,35,25,26,23,19,81,65,48,30.17,30.05,29.91,10,10,7,17,7,20,0.00,2,,239
2013-2-13,50,38,25,28,26,22,88,65,42,29.88,29.80,29.72,10,10,10,14,8,16,0.00,1,,245
2013-2-14,44,35,26,29,26,20,78,68,57,30.15,29.93,29.72,10,10,10,24,15,35,T,5,,301
2013-2-15,30,24,17,18,12,6,80,60,39,30.32,30.28,30.15,10,10,10,24,12,30,0.00,0,,316
2013-2-16,33,22,11,17,12,8,84,64,43,30.31,30.23,30.16,10,10,10,14,7,16,0.00,0,,300
2013-2-17,44,30,16,24,19,13,84,62,39,30.15,29.99,29.74,10,10,10,22,13,28,0.00,1,,137
2013-2-18,49,34,19,34,24,9,92,74,56,29.90,29.70,29.57,10,9,3,36,18,44,0.05,5,Rain-Snow,286
2013-2-19,26,18,10,9,5,1,67,54,40,30.38,30.12,29.90,10,10,9,31,21,41,T,4,,303
2013-2-20,24,13,1,11,3,-5,79,62,44,30.48,30.39,30.32,10,10,10,17,7,21,0.00,1,,29
2013-2-21,26,22,17,25,19,11,92,77,62,30.36,30.01,29.81,10,4,0,25,16,31,0.17,7,Fog-Snow,86
2013-2-22,29,26,22,23,20,16,92,78,63,30.02,29.85,29.73,10,6,2,20,10,22,0.02,8,Snow,285
2013-2-23,31,24,17,17,15,12,80,69,58,30.02,29.99,29.96,10,10,9,14,8,16,0.00,2,,238
2013-2-24,41,26,10,27,19,8,92,74,55,30.10,30.07,30.01,10,8,4,12,5,13,0.00,0,,122
2013-2-25,39,32,24,30,26,21,88,76,64,30.11,30.03,29.86,9,6,4,16,9,21,0.00,3,,66
2013-2-26,34,33,31,30,28,26,92,84,75,29.82,29.68,29.58,7,2,0,24,17,31,0.04,8,Fog-Snow,13
2013-2-27,31,30,28,29,27,25,92,89,85,29.94,29.80,29.71,9,2,0,24,16,30,0.01,8,Fog-Snow,319
2013-2-28,31,27,23,25,22,20,88,82,75,30.16,30.06,29.92,10,8,2,22,15,25,T,8,Snow,318